sensor_id;sensor_type;location;lat;lon;timestamp;temperature;humidity
57108;DHT22;42987;52.916;6.542;2024-03-29T00:00:43;8.60;99.90
57108;DHT22;42987;52.916;6.542;2024-03-29T00:03:12;8.60;99.90
57108;DHT22;42987;52.916;6.542;2024-03-29T00:05:38;8.60;99.90
57108;DHT22;42987;52.916;6.542;2024-03-29T00:08:04;8.70;99.90
57108;DHT22;42987;52.916;6.542;2024-03-29T00:10:30;8.60;99.90
57108;DHT22;42987;52.916;6.542;2024-03-29T00:12:59;8.60;99.90
57108;DHT22;42987;52.916;6.542;2024-03-29T00:15:25;8.70;99.90
57108;DHT22;42987;52.916;6.542;2024-03-29T00:17:51;8.60;99.90
57108;DHT22;42987;52.916;6.542;2024-03-29T00:20:16;8.70;99.90
57108;DHT22;42987;52.916;6.542;2024-03-29T00:22:42;8.70;99.90
57108;DHT22;42987;52.916;6.542;2024-03-29T00:25:09;8.70;99.90
57108;DHT22;42987;52.916;6.542;2024-03-29T00:27:34;8.60;99.90
57108;DHT22;42987;52.916;6.542;2024-03-29T00:30:01;8.70;99.90
57108;DHT22;42987;52.916;6.542;2024-03-29T00:32:27;8.70;99.90
57108;DHT22;42987;52.916;6.542;2024-03-29T00:34:53;8.70;99.90
57108;DHT22;42987;52.916;6.542;2024-03-29T00:37:20;8.70;99.90
57108;DHT22;42987;52.916;6.542;2024-03-29T00:39:46;8.70;99.90
57108;DHT22;42987;52.916;6.542;2024-03-29T00:42:12;8.70;99.90
57108;DHT22;42987;52.916;6.542;2024-03-29T00:44:43;8.70;99.90
57108;DHT22;42987;52.916;6.542;2024-03-29T00:47:10;8.70;99.90
57108;DHT22;42987;52.916;6.542;2024-03-29T00:49:36;8.70;99.90
57108;DHT22;42987;52.916;6.542;2024-03-29T00:52:03;8.70;99.90
57108;DHT22;42987;52.916;6.542;2024-03-29T00:54:29;8.70;99.90
57108;DHT22;42987;52.916;6.542;2024-03-29T00:56:55;8.70;99.90
57108;DHT22;42987;52.916;6.542;2024-03-29T00:59:21;8.70;99.90
57108;DHT22;42987;52.916;6.542;2024-03-29T01:01:47;8.60;99.90
57108;DHT22;42987;52.916;6.542;2024-03-29T01:04:13;8.60;99.90
57108;DHT22;42987;52.916;6.542;2024-03-29T01:06:39;8.60;99.90
57108;DHT22;42987;52.916;6.542;2024-03-29T01:09:06;8.60;99.90
57108;DHT22;42987;52.916;6.542;2024-03-29T01:11:32;8.60;99.90
57108;DHT22;42987;52.916;6.542;2024-03-29T01:13:58;8.60;99.90
57108;DHT22;42987;52.916;6.542;2024-03-29T01:16:24;8.60;99.90
57108;DHT22;42987;52.916;6.542;2024-03-29T01:18:50;8.50;99.90
57108;DHT22;42987;52.916;6.542;2024-03-29T01:21:17;8.50;99.90
57108;DHT22;42987;52.916;6.542;2024-03-29T01:23:44;8.40;99.90
57108;DHT22;42987;52.916;6.542;2024-03-29T01:26:09;8.40;99.90
57108;DHT22;42987;52.916;6.542;2024-03-29T01:28:44;8.40;99.90
57108;DHT22;42987;52.916;6.542;2024-03-29T01:31:10;8.40;99.90
57108;DHT22;42987;52.916;6.542;2024-03-29T01:33:35;8.40;99.90
57108;DHT22;42987;52.916;6.542;2024-03-29T01:36:05;8.40;99.90
57108;DHT22;42987;52.916;6.542;2024-03-29T01:38:31;8.40;99.90
57108;DHT22;42987;52.916;6.542;2024-03-29T01:40:57;8.40;99.90
57108;DHT22;42987;52.916;6.542;2024-03-29T01:43:24;8.40;99.90
57108;DHT22;42987;52.916;6.542;2024-03-29T01:45:52;8.40;99.90
57108;DHT22;42987;52.916;6.542;2024-03-29T01:48:19;8.40;99.90
57108;DHT22;42987;52.916;6.542;2024-03-29T01:50:47;8.40;99.90
57108;DHT22;42987;52.916;6.542;2024-03-29T01:53:14;8.40;99.90
57108;DHT22;42987;52.916;6.542;2024-03-29T01:55:41;8.40;99.90
57108;DHT22;42987;52.916;6.542;2024-03-29T01:58:08;8.30;99.90
57108;DHT22;42987;52.916;6.542;2024-03-29T02:00:37;8.30;99.90
57108;DHT22;42987;52.916;6.542;2024-03-29T02:03:05;8.40;99.90
57108;DHT22;42987;52.916;6.542;2024-03-29T02:05:35;8.30;99.90
57108;DHT22;42987;52.916;6.542;2024-03-29T02:08:03;8.30;99.90
57108;DHT22;42987;52.916;6.542;2024-03-29T02:10:29;8.30;99.90
57108;DHT22;42987;52.916;6.542;2024-03-29T02:12:55;8.30;99.90
57108;DHT22;42987;52.916;6.542;2024-03-29T02:15:21;8.20;99.90
57108;DHT22;42987;52.916;6.542;2024-03-29T02:17:47;8.20;99.90
57108;DHT22;42987;52.916;6.542;2024-03-29T02:20:12;8.20;99.90
57108;DHT22;42987;52.916;6.542;2024-03-29T02:22:44;8.20;99.90
57108;DHT22;42987;52.916;6.542;2024-03-29T02:25:12;8.10;99.90
57108;DHT22;42987;52.916;6.542;2024-03-29T02:27:38;8.10;99.90
57108;DHT22;42987;52.916;6.542;2024-03-29T02:30:05;8.10;99.90
57108;DHT22;42987;52.916;6.542;2024-03-29T02:32:31;8.00;99.90
57108;DHT22;42987;52.916;6.542;2024-03-29T02:34:56;8.00;99.90
57108;DHT22;42987;52.916;6.542;2024-03-29T02:37:22;8.00;99.90
57108;DHT22;42987;52.916;6.542;2024-03-29T02:39:48;8.00;99.90
57108;DHT22;42987;52.916;6.542;2024-03-29T02:42:17;8.00;99.90
57108;DHT22;42987;52.916;6.542;2024-03-29T02:44:43;8.00;99.90
57108;DHT22;42987;52.916;6.542;2024-03-29T02:47:08;8.10;99.90
57108;DHT22;42987;52.916;6.542;2024-03-29T02:49:34;8.10;99.90
57108;DHT22;42987;52.916;6.542;2024-03-29T02:52:00;8.10;99.90
57108;DHT22;42987;52.916;6.542;2024-03-29T02:54:25;8.10;99.90
57108;DHT22;42987;52.916;6.542;2024-03-29T02:56:51;8.10;99.90
57108;DHT22;42987;52.916;6.542;2024-03-29T02:59:17;8.10;99.90
57108;DHT22;42987;52.916;6.542;2024-03-29T03:01:42;8.10;99.90
57108;DHT22;42987;52.916;6.542;2024-03-29T03:04:08;8.10;99.90
57108;DHT22;42987;52.916;6.542;2024-03-29T03:06:34;8.10;99.90
57108;DHT22;42987;52.916;6.542;2024-03-29T03:09:00;8.10;99.90
57108;DHT22;42987;52.916;6.542;2024-03-29T03:11:44;8.10;99.90
57108;DHT22;42987;52.916;6.542;2024-03-29T03:14:10;8.20;99.90
57108;DHT22;42987;52.916;6.542;2024-03-29T03:16:35;8.20;99.90
57108;DHT22;42987;52.916;6.542;2024-03-29T03:19:01;8.10;99.90
57108;DHT22;42987;52.916;6.542;2024-03-29T03:21:27;8.20;99.90
57108;DHT22;42987;52.916;6.542;2024-03-29T03:23:54;8.10;99.90
57108;DHT22;42987;52.916;6.542;2024-03-29T03:26:19;8.20;99.90
57108;DHT22;42987;52.916;6.542;2024-03-29T03:28:45;8.10;99.90
57108;DHT22;42987;52.916;6.542;2024-03-29T03:31:11;8.20;99.90
57108;DHT22;42987;52.916;6.542;2024-03-29T03:33:37;8.30;99.90
57108;DHT22;42987;52.916;6.542;2024-03-29T03:36:03;8.20;99.90
57108;DHT22;42987;52.916;6.542;2024-03-29T03:38:30;8.20;99.90
57108;DHT22;42987;52.916;6.542;2024-03-29T03:40:56;8.20;99.90
57108;DHT22;42987;52.916;6.542;2024-03-29T03:43:22;8.30;99.90
57108;DHT22;42987;52.916;6.542;2024-03-29T03:45:47;8.30;99.90
57108;DHT22;42987;52.916;6.542;2024-03-29T03:48:13;8.30;99.90
57108;DHT22;42987;52.916;6.542;2024-03-29T03:50:40;8.30;99.90
57108;DHT22;42987;52.916;6.542;2024-03-29T03:53:07;8.30;99.90
57108;DHT22;42987;52.916;6.542;2024-03-29T03:55:37;8.30;99.90
57108;DHT22;42987;52.916;6.542;2024-03-29T03:58:05;8.30;99.90
57108;DHT22;42987;52.916;6.542;2024-03-29T04:00:31;8.30;99.90
57108;DHT22;42987;52.916;6.542;2024-03-29T04:02:57;8.30;99.90
57108;DHT22;42987;52.916;6.542;2024-03-29T04:05:23;8.30;99.90
57108;DHT22;42987;52.916;6.542;2024-03-29T04:07:50;8.30;99.90
57108;DHT22;42987;52.916;6.542;2024-03-29T04:10:16;8.20;99.90
57108;DHT22;42987;52.916;6.542;2024-03-29T04:12:42;8.20;99.90
57108;DHT22;42987;52.916;6.542;2024-03-29T04:15:10;8.20;99.90
57108;DHT22;42987;52.916;6.542;2024-03-29T04:17:36;8.30;99.90
57108;DHT22;42987;52.916;6.542;2024-03-29T04:20:02;8.30;99.90
57108;DHT22;42987;52.916;6.542;2024-03-29T04:22:28;8.30;99.90
57108;DHT22;42987;52.916;6.542;2024-03-29T04:24:54;8.30;99.90
57108;DHT22;42987;52.916;6.542;2024-03-29T04:27:19;8.40;99.90
57108;DHT22;42987;52.916;6.542;2024-03-29T04:29:45;8.30;99.90
57108;DHT22;42987;52.916;6.542;2024-03-29T04:32:11;8.30;99.90
57108;DHT22;42987;52.916;6.542;2024-03-29T04:34:40;8.30;99.90
57108;DHT22;42987;52.916;6.542;2024-03-29T04:37:05;8.30;99.90
57108;DHT22;42987;52.916;6.542;2024-03-29T04:39:31;8.30;99.90
57108;DHT22;42987;52.916;6.542;2024-03-29T04:41:57;8.30;99.90
57108;DHT22;42987;52.916;6.542;2024-03-29T04:44:25;8.40;99.90
57108;DHT22;42987;52.916;6.542;2024-03-29T04:46:52;8.40;99.90
57108;DHT22;42987;52.916;6.542;2024-03-29T04:49:21;8.40;99.90
57108;DHT22;42987;52.916;6.542;2024-03-29T04:51:56;8.40;99.90
57108;DHT22;42987;52.916;6.542;2024-03-29T04:54:23;8.40;99.90
57108;DHT22;42987;52.916;6.542;2024-03-29T04:56:48;8.40;99.90
57108;DHT22;42987;52.916;6.542;2024-03-29T04:59:14;8.40;99.90
57108;DHT22;42987;52.916;6.542;2024-03-29T05:01:45;8.40;99.90
57108;DHT22;42987;52.916;6.542;2024-03-29T05:04:19;8.40;99.90
57108;DHT22;42987;52.916;6.542;2024-03-29T05:06:54;8.40;99.90
57108;DHT22;42987;52.916;6.542;2024-03-29T05:09:20;8.50;99.90
57108;DHT22;42987;52.916;6.542;2024-03-29T05:11:47;8.50;99.90
57108;DHT22;42987;52.916;6.542;2024-03-29T05:14:17;8.50;99.90
57108;DHT22;42987;52.916;6.542;2024-03-29T05:16:47;8.50;99.90
57108;DHT22;42987;52.916;6.542;2024-03-29T05:19:14;8.50;99.90
57108;DHT22;42987;52.916;6.542;2024-03-29T05:21:40;8.60;99.90
57108;DHT22;42987;52.916;6.542;2024-03-29T05:24:07;8.60;99.90
57108;DHT22;42987;52.916;6.542;2024-03-29T05:26:33;8.60;99.90
57108;DHT22;42987;52.916;6.542;2024-03-29T05:29:00;8.60;99.90
57108;DHT22;42987;52.916;6.542;2024-03-29T05:31:26;8.60;99.90
57108;DHT22;42987;52.916;6.542;2024-03-29T05:33:54;8.70;99.90
57108;DHT22;42987;52.916;6.542;2024-03-29T05:36:20;8.70;99.90
57108;DHT22;42987;52.916;6.542;2024-03-29T05:38:46;8.60;99.90
57108;DHT22;42987;52.916;6.542;2024-03-29T05:41:12;8.70;99.90
57108;DHT22;42987;52.916;6.542;2024-03-29T05:43:41;8.70;99.90
57108;DHT22;42987;52.916;6.542;2024-03-29T05:46:06;8.70;99.90
57108;DHT22;42987;52.916;6.542;2024-03-29T05:48:35;8.70;99.90
57108;DHT22;42987;52.916;6.542;2024-03-29T05:51:01;8.80;99.90
57108;DHT22;42987;52.916;6.542;2024-03-29T05:53:26;8.80;99.90
57108;DHT22;42987;52.916;6.542;2024-03-29T05:55:52;8.80;99.90
57108;DHT22;42987;52.916;6.542;2024-03-29T05:58:18;8.80;99.90
57108;DHT22;42987;52.916;6.542;2024-03-29T06:00:46;8.80;99.90
57108;DHT22;42987;52.916;6.542;2024-03-29T06:03:11;8.80;99.90
57108;DHT22;42987;52.916;6.542;2024-03-29T06:05:40;8.80;99.90
57108;DHT22;42987;52.916;6.542;2024-03-29T06:08:10;8.90;99.90
57108;DHT22;42987;52.916;6.542;2024-03-29T06:10:36;8.90;99.90
57108;DHT22;42987;52.916;6.542;2024-03-29T06:13:01;8.90;99.90
57108;DHT22;42987;52.916;6.542;2024-03-29T06:15:33;8.90;99.90
57108;DHT22;42987;52.916;6.542;2024-03-29T06:18:18;8.90;99.90
57108;DHT22;42987;52.916;6.542;2024-03-29T06:20:47;8.90;99.90
57108;DHT22;42987;52.916;6.542;2024-03-29T06:23:13;8.90;99.90
57108;DHT22;42987;52.916;6.542;2024-03-29T06:25:40;9.00;99.90
57108;DHT22;42987;52.916;6.542;2024-03-29T06:28:05;9.00;99.90
57108;DHT22;42987;52.916;6.542;2024-03-29T06:30:31;9.00;99.90
57108;DHT22;42987;52.916;6.542;2024-03-29T06:33:00;9.00;99.90
57108;DHT22;42987;52.916;6.542;2024-03-29T06:35:28;9.00;99.90
57108;DHT22;42987;52.916;6.542;2024-03-29T06:37:54;9.00;99.90
57108;DHT22;42987;52.916;6.542;2024-03-29T06:40:19;9.00;99.90
57108;DHT22;42987;52.916;6.542;2024-03-29T06:42:45;9.00;99.90
57108;DHT22;42987;52.916;6.542;2024-03-29T06:45:11;9.00;99.90
57108;DHT22;42987;52.916;6.542;2024-03-29T06:47:37;9.10;99.90
57108;DHT22;42987;52.916;6.542;2024-03-29T06:50:05;9.00;99.90
57108;DHT22;42987;52.916;6.542;2024-03-29T06:52:31;9.00;99.90
57108;DHT22;42987;52.916;6.542;2024-03-29T06:54:57;9.10;99.90
57108;DHT22;42987;52.916;6.542;2024-03-29T06:57:23;9.10;99.90
57108;DHT22;42987;52.916;6.542;2024-03-29T06:59:51;9.10;99.90
57108;DHT22;42987;52.916;6.542;2024-03-29T07:02:17;9.10;99.90
57108;DHT22;42987;52.916;6.542;2024-03-29T07:04:46;9.10;99.90
57108;DHT22;42987;52.916;6.542;2024-03-29T07:07:12;9.10;99.90
57108;DHT22;42987;52.916;6.542;2024-03-29T07:09:40;9.20;99.90
57108;DHT22;42987;52.916;6.542;2024-03-29T07:12:06;9.20;99.90
57108;DHT22;42987;52.916;6.542;2024-03-29T07:14:32;9.20;99.90
57108;DHT22;42987;52.916;6.542;2024-03-29T07:16:59;9.20;99.90
57108;DHT22;42987;52.916;6.542;2024-03-29T07:19:28;9.20;99.90
57108;DHT22;42987;52.916;6.542;2024-03-29T07:21:53;9.20;99.90
57108;DHT22;42987;52.916;6.542;2024-03-29T07:24:19;9.20;99.90
57108;DHT22;42987;52.916;6.542;2024-03-29T07:26:45;9.20;99.90
57108;DHT22;42987;52.916;6.542;2024-03-29T07:29:11;9.30;99.90
57108;DHT22;42987;52.916;6.542;2024-03-29T07:31:37;9.30;99.90
57108;DHT22;42987;52.916;6.542;2024-03-29T07:34:03;9.30;99.90
57108;DHT22;42987;52.916;6.542;2024-03-29T07:36:29;9.30;99.90
57108;DHT22;42987;52.916;6.542;2024-03-29T07:39:01;9.20;99.90
57108;DHT22;42987;52.916;6.542;2024-03-29T07:41:27;9.30;99.90
57108;DHT22;42987;52.916;6.542;2024-03-29T07:43:54;9.30;99.90
57108;DHT22;42987;52.916;6.542;2024-03-29T07:46:22;9.30;99.90
57108;DHT22;42987;52.916;6.542;2024-03-29T07:48:51;9.30;99.90
57108;DHT22;42987;52.916;6.542;2024-03-29T07:51:17;9.30;99.90
57108;DHT22;42987;52.916;6.542;2024-03-29T07:53:43;9.30;99.90
57108;DHT22;42987;52.916;6.542;2024-03-29T07:56:09;9.30;99.90
57108;DHT22;42987;52.916;6.542;2024-03-29T07:58:35;9.30;99.90
57108;DHT22;42987;52.916;6.542;2024-03-29T08:01:03;9.30;99.90
57108;DHT22;42987;52.916;6.542;2024-03-29T08:03:29;9.30;99.90
57108;DHT22;42987;52.916;6.542;2024-03-29T08:06:02;9.20;99.90
57108;DHT22;42987;52.916;6.542;2024-03-29T08:08:30;9.30;99.90
57108;DHT22;42987;52.916;6.542;2024-03-29T08:10:56;9.30;99.90
57108;DHT22;42987;52.916;6.542;2024-03-29T08:13:23;9.20;99.90
57108;DHT22;42987;52.916;6.542;2024-03-29T08:15:56;9.20;99.90
57108;DHT22;42987;52.916;6.542;2024-03-29T08:18:24;9.20;99.90
57108;DHT22;42987;52.916;6.542;2024-03-29T08:20:49;9.20;99.90
57108;DHT22;42987;52.916;6.542;2024-03-29T08:23:15;9.10;99.90
57108;DHT22;42987;52.916;6.542;2024-03-29T08:25:41;9.10;99.90
57108;DHT22;42987;52.916;6.542;2024-03-29T08:28:07;9.10;99.90
57108;DHT22;42987;52.916;6.542;2024-03-29T08:30:35;9.00;99.90
57108;DHT22;42987;52.916;6.542;2024-03-29T08:33:02;9.00;99.90
57108;DHT22;42987;52.916;6.542;2024-03-29T08:35:29;9.10;99.90
57108;DHT22;42987;52.916;6.542;2024-03-29T08:37:55;9.10;99.90
57108;DHT22;42987;52.916;6.542;2024-03-29T08:40:21;9.10;99.90
57108;DHT22;42987;52.916;6.542;2024-03-29T08:42:47;9.20;99.90
57108;DHT22;42987;52.916;6.542;2024-03-29T08:45:13;9.20;99.90
57108;DHT22;42987;52.916;6.542;2024-03-29T08:47:39;9.30;99.90
57108;DHT22;42987;52.916;6.542;2024-03-29T08:50:05;9.30;99.90
57108;DHT22;42987;52.916;6.542;2024-03-29T08:52:31;9.20;99.90
57108;DHT22;42987;52.916;6.542;2024-03-29T08:54:57;9.30;99.90
57108;DHT22;42987;52.916;6.542;2024-03-29T08:57:22;9.20;99.90
57108;DHT22;42987;52.916;6.542;2024-03-29T08:59:48;9.20;99.90
57108;DHT22;42987;52.916;6.542;2024-03-29T09:02:14;9.20;99.90
57108;DHT22;42987;52.916;6.542;2024-03-29T09:04:40;9.30;99.90
57108;DHT22;42987;52.916;6.542;2024-03-29T09:07:05;9.40;99.90
57108;DHT22;42987;52.916;6.542;2024-03-29T09:09:32;9.50;99.90
57108;DHT22;42987;52.916;6.542;2024-03-29T09:11:58;9.50;99.90
57108;DHT22;42987;52.916;6.542;2024-03-29T09:14:24;9.50;99.90
57108;DHT22;42987;52.916;6.542;2024-03-29T09:16:50;9.60;99.90
57108;DHT22;42987;52.916;6.542;2024-03-29T09:19:16;9.50;99.90
57108;DHT22;42987;52.916;6.542;2024-03-29T09:21:42;9.60;99.90
57108;DHT22;42987;52.916;6.542;2024-03-29T09:24:08;9.70;99.90
57108;DHT22;42987;52.916;6.542;2024-03-29T09:26:34;9.80;99.90
57108;DHT22;42987;52.916;6.542;2024-03-29T09:29:00;9.80;99.90
57108;DHT22;42987;52.916;6.542;2024-03-29T09:31:26;9.90;99.90
57108;DHT22;42987;52.916;6.542;2024-03-29T09:33:52;9.90;99.90
57108;DHT22;42987;52.916;6.542;2024-03-29T09:36:23;9.90;99.90
57108;DHT22;42987;52.916;6.542;2024-03-29T09:38:52;9.90;99.90
57108;DHT22;42987;52.916;6.542;2024-03-29T09:41:19;9.90;99.90
57108;DHT22;42987;52.916;6.542;2024-03-29T09:43:46;10.00;99.90
57108;DHT22;42987;52.916;6.542;2024-03-29T09:46:13;10.00;99.90
57108;DHT22;42987;52.916;6.542;2024-03-29T09:48:44;10.00;99.90
57108;DHT22;42987;52.916;6.542;2024-03-29T09:51:12;10.00;99.90
57108;DHT22;42987;52.916;6.542;2024-03-29T09:53:42;10.10;99.90
57108;DHT22;42987;52.916;6.542;2024-03-29T09:56:09;10.20;99.90
57108;DHT22;42987;52.916;6.542;2024-03-29T09:58:38;10.20;99.90
57108;DHT22;42987;52.916;6.542;2024-03-29T10:01:05;10.50;99.90
57108;DHT22;42987;52.916;6.542;2024-03-29T10:03:34;10.60;99.90
57108;DHT22;42987;52.916;6.542;2024-03-29T10:06:01;10.80;99.90
57108;DHT22;42987;52.916;6.542;2024-03-29T10:08:29;10.90;99.90
57108;DHT22;42987;52.916;6.542;2024-03-29T10:10:59;11.00;99.90
57108;DHT22;42987;52.916;6.542;2024-03-29T10:13:25;11.10;99.90
57108;DHT22;42987;52.916;6.542;2024-03-29T10:15:55;11.20;99.90
57108;DHT22;42987;52.916;6.542;2024-03-29T10:18:26;11.40;99.90
57108;DHT22;42987;52.916;6.542;2024-03-29T10:21:06;11.60;99.90
57108;DHT22;42987;52.916;6.542;2024-03-29T10:23:35;11.60;99.90
57108;DHT22;42987;52.916;6.542;2024-03-29T10:26:02;11.80;99.90
57108;DHT22;42987;52.916;6.542;2024-03-29T10:28:33;11.80;99.90
57108;DHT22;42987;52.916;6.542;2024-03-29T10:31:04;12.00;99.90
57108;DHT22;42987;52.916;6.542;2024-03-29T10:33:30;12.20;99.90
57108;DHT22;42987;52.916;6.542;2024-03-29T10:35:58;12.40;99.90
57108;DHT22;42987;52.916;6.542;2024-03-29T10:38:26;12.50;99.90
57108;DHT22;42987;52.916;6.542;2024-03-29T10:40:55;12.50;99.90
57108;DHT22;42987;52.916;6.542;2024-03-29T10:43:21;12.50;99.90
57108;DHT22;42987;52.916;6.542;2024-03-29T10:45:48;12.50;99.90
57108;DHT22;42987;52.916;6.542;2024-03-29T10:48:16;12.60;99.90
57108;DHT22;42987;52.916;6.542;2024-03-29T10:50:45;12.80;99.90
57108;DHT22;42987;52.916;6.542;2024-03-29T10:53:12;12.70;99.90
57108;DHT22;42987;52.916;6.542;2024-03-29T10:55:42;12.70;99.90
57108;DHT22;42987;52.916;6.542;2024-03-29T10:58:10;12.90;99.90
57108;DHT22;42987;52.916;6.542;2024-03-29T11:00:45;13.00;99.90
57108;DHT22;42987;52.916;6.542;2024-03-29T11:03:26;12.90;99.90
57108;DHT22;42987;52.916;6.542;2024-03-29T11:06:03;12.90;99.90
57108;DHT22;42987;52.916;6.542;2024-03-29T11:08:32;12.80;99.90
57108;DHT22;42987;52.916;6.542;2024-03-29T11:11:01;12.70;99.90
57108;DHT22;42987;52.916;6.542;2024-03-29T11:13:49;12.70;99.90
57108;DHT22;42987;52.916;6.542;2024-03-29T11:16:17;12.70;99.90
57108;DHT22;42987;52.916;6.542;2024-03-29T11:18:45;12.70;99.90
57108;DHT22;42987;52.916;6.542;2024-03-29T11:21:14;12.60;99.90
57108;DHT22;42987;52.916;6.542;2024-03-29T11:23:52;12.60;99.90
57108;DHT22;42987;52.916;6.542;2024-03-29T11:26:19;12.60;99.90
57108;DHT22;42987;52.916;6.542;2024-03-29T11:28:49;12.60;99.90
57108;DHT22;42987;52.916;6.542;2024-03-29T11:31:15;12.60;99.90
57108;DHT22;42987;52.916;6.542;2024-03-29T11:36:18;12.50;99.90
57108;DHT22;42987;52.916;6.542;2024-03-29T11:38:48;12.50;99.90
57108;DHT22;42987;52.916;6.542;2024-03-29T11:41:25;12.50;99.90
57108;DHT22;42987;52.916;6.542;2024-03-29T11:43:53;12.60;99.90
57108;DHT22;42987;52.916;6.542;2024-03-29T11:46:20;12.80;99.90
57108;DHT22;42987;52.916;6.542;2024-03-29T11:48:46;12.80;99.90
57108;DHT22;42987;52.916;6.542;2024-03-29T11:51:16;12.90;99.90
57108;DHT22;42987;52.916;6.542;2024-03-29T11:53:44;13.00;99.90
57108;DHT22;42987;52.916;6.542;2024-03-29T11:56:10;13.00;99.90
57108;DHT22;42987;52.916;6.542;2024-03-29T11:58:40;12.90;99.90
57108;DHT22;42987;52.916;6.542;2024-03-29T12:01:06;13.00;99.90
57108;DHT22;42987;52.916;6.542;2024-03-29T12:03:39;13.10;99.90
57108;DHT22;42987;52.916;6.542;2024-03-29T12:06:05;13.20;99.90
57108;DHT22;42987;52.916;6.542;2024-03-29T12:08:34;13.30;99.90
57108;DHT22;42987;52.916;6.542;2024-03-29T12:11:01;13.50;99.90
57108;DHT22;42987;52.916;6.542;2024-03-29T12:13:28;13.50;99.90
57108;DHT22;42987;52.916;6.542;2024-03-29T12:15:54;13.60;99.90
57108;DHT22;42987;52.916;6.542;2024-03-29T12:18:21;13.50;99.90
57108;DHT22;42987;52.916;6.542;2024-03-29T12:20:51;13.30;99.90
57108;DHT22;42987;52.916;6.542;2024-03-29T12:23:21;13.30;99.90
57108;DHT22;42987;52.916;6.542;2024-03-29T12:25:48;13.30;99.90
57108;DHT22;42987;52.916;6.542;2024-03-29T12:28:15;13.30;99.90
57108;DHT22;42987;52.916;6.542;2024-03-29T12:30:46;13.30;99.90
57108;DHT22;42987;52.916;6.542;2024-03-29T12:33:17;13.20;99.90
57108;DHT22;42987;52.916;6.542;2024-03-29T12:35:46;13.30;99.90
57108;DHT22;42987;52.916;6.542;2024-03-29T12:38:16;13.40;99.90
57108;DHT22;42987;52.916;6.542;2024-03-29T12:40:44;13.40;99.90
57108;DHT22;42987;52.916;6.542;2024-03-29T12:43:10;13.40;99.90
57108;DHT22;42987;52.916;6.542;2024-03-29T12:45:39;13.40;99.90
57108;DHT22;42987;52.916;6.542;2024-03-29T12:48:16;13.50;99.90
57108;DHT22;42987;52.916;6.542;2024-03-29T12:50:43;13.60;99.90
57108;DHT22;42987;52.916;6.542;2024-03-29T12:53:12;13.80;99.90
57108;DHT22;42987;52.916;6.542;2024-03-29T12:55:40;13.90;99.90
57108;DHT22;42987;52.916;6.542;2024-03-29T12:58:14;14.00;99.90
57108;DHT22;42987;52.916;6.542;2024-03-29T13:00:40;14.00;99.90
57108;DHT22;42987;52.916;6.542;2024-03-29T13:03:08;13.90;99.90
57108;DHT22;42987;52.916;6.542;2024-03-29T13:05:38;13.80;99.90
57108;DHT22;42987;52.916;6.542;2024-03-29T13:08:11;13.70;99.90
57108;DHT22;42987;52.916;6.542;2024-03-29T13:10:41;13.70;99.90
57108;DHT22;42987;52.916;6.542;2024-03-29T13:13:11;13.50;99.90
57108;DHT22;42987;52.916;6.542;2024-03-29T13:15:38;13.50;99.90
57108;DHT22;42987;52.916;6.542;2024-03-29T13:18:04;13.40;99.90
57108;DHT22;42987;52.916;6.542;2024-03-29T13:20:32;13.40;99.90
57108;DHT22;42987;52.916;6.542;2024-03-29T13:22:59;13.30;99.90
57108;DHT22;42987;52.916;6.542;2024-03-29T13:25:25;13.30;99.90
57108;DHT22;42987;52.916;6.542;2024-03-29T13:27:54;13.20;99.90
57108;DHT22;42987;52.916;6.542;2024-03-29T13:30:22;13.30;99.90
57108;DHT22;42987;52.916;6.542;2024-03-29T13:32:48;13.40;99.90
57108;DHT22;42987;52.916;6.542;2024-03-29T13:35:17;13.50;99.90
57108;DHT22;42987;52.916;6.542;2024-03-29T13:37:52;13.50;99.90
57108;DHT22;42987;52.916;6.542;2024-03-29T13:40:22;13.60;99.90
57108;DHT22;42987;52.916;6.542;2024-03-29T13:42:50;13.70;99.90
57108;DHT22;42987;52.916;6.542;2024-03-29T13:45:16;13.80;99.90
57108;DHT22;42987;52.916;6.542;2024-03-29T13:47:44;13.70;99.90
57108;DHT22;42987;52.916;6.542;2024-03-29T13:50:11;13.80;99.90
57108;DHT22;42987;52.916;6.542;2024-03-29T13:52:37;13.90;99.90
57108;DHT22;42987;52.916;6.542;2024-03-29T13:55:04;14.00;99.90
57108;DHT22;42987;52.916;6.542;2024-03-29T13:57:30;14.00;99.90
57108;DHT22;42987;52.916;6.542;2024-03-29T13:59:57;14.00;99.90
57108;DHT22;42987;52.916;6.542;2024-03-29T14:02:24;14.00;99.90
57108;DHT22;42987;52.916;6.542;2024-03-29T14:04:53;13.90;99.90
57108;DHT22;42987;52.916;6.542;2024-03-29T14:07:19;13.80;99.90
57108;DHT22;42987;52.916;6.542;2024-03-29T14:09:45;13.80;99.90
57108;DHT22;42987;52.916;6.542;2024-03-29T14:12:11;13.80;99.90
57108;DHT22;42987;52.916;6.542;2024-03-29T14:14:41;13.80;99.90
57108;DHT22;42987;52.916;6.542;2024-03-29T14:17:12;13.80;99.90
57108;DHT22;42987;52.916;6.542;2024-03-29T14:19:38;13.90;99.90
57108;DHT22;42987;52.916;6.542;2024-03-29T14:22:05;13.90;99.90
57108;DHT22;42987;52.916;6.542;2024-03-29T14:24:34;13.90;99.90
57108;DHT22;42987;52.916;6.542;2024-03-29T14:27:06;13.90;99.90
57108;DHT22;42987;52.916;6.542;2024-03-29T14:29:35;13.80;99.90
57108;DHT22;42987;52.916;6.542;2024-03-29T14:32:01;13.80;99.90
57108;DHT22;42987;52.916;6.542;2024-03-29T14:34:28;13.80;99.90
57108;DHT22;42987;52.916;6.542;2024-03-29T14:36:57;13.80;99.90
57108;DHT22;42987;52.916;6.542;2024-03-29T14:39:23;13.90;99.90
57108;DHT22;42987;52.916;6.542;2024-03-29T14:41:49;13.90;99.90
57108;DHT22;42987;52.916;6.542;2024-03-29T14:44:17;14.00;99.90
57108;DHT22;42987;52.916;6.542;2024-03-29T14:46:46;14.00;99.90
57108;DHT22;42987;52.916;6.542;2024-03-29T14:49:12;14.10;99.90
57108;DHT22;42987;52.916;6.542;2024-03-29T14:51:40;14.10;99.90
57108;DHT22;42987;52.916;6.542;2024-03-29T14:54:06;14.10;99.90
57108;DHT22;42987;52.916;6.542;2024-03-29T14:56:33;14.10;99.90
57108;DHT22;42987;52.916;6.542;2024-03-29T14:59:01;14.10;99.90
57108;DHT22;42987;52.916;6.542;2024-03-29T15:01:27;14.10;99.90
57108;DHT22;42987;52.916;6.542;2024-03-29T15:03:53;14.10;99.90
57108;DHT22;42987;52.916;6.542;2024-03-29T15:06:20;14.20;99.90
57108;DHT22;42987;52.916;6.542;2024-03-29T15:08:47;14.20;99.90
57108;DHT22;42987;52.916;6.542;2024-03-29T15:11:13;14.20;99.90
57108;DHT22;42987;52.916;6.542;2024-03-29T15:13:39;14.30;99.90
57108;DHT22;42987;52.916;6.542;2024-03-29T15:16:05;14.40;99.90
57108;DHT22;42987;52.916;6.542;2024-03-29T15:18:31;14.40;99.90
57108;DHT22;42987;52.916;6.542;2024-03-29T15:21:00;14.40;99.90
57108;DHT22;42987;52.916;6.542;2024-03-29T15:23:30;14.40;99.90
57108;DHT22;42987;52.916;6.542;2024-03-29T15:26:00;14.40;99.90
57108;DHT22;42987;52.916;6.542;2024-03-29T15:28:26;14.30;99.90
57108;DHT22;42987;52.916;6.542;2024-03-29T15:33:38;14.30;99.90
57108;DHT22;42987;52.916;6.542;2024-03-29T15:36:04;14.30;99.90
57108;DHT22;42987;52.916;6.542;2024-03-29T15:38:31;14.30;99.90
57108;DHT22;42987;52.916;6.542;2024-03-29T15:40:58;14.20;99.90
57108;DHT22;42987;52.916;6.542;2024-03-29T15:43:24;14.20;99.90
57108;DHT22;42987;52.916;6.542;2024-03-29T15:45:53;14.10;99.90